createdAt,value
2022-11-26T00:01:47.317Z,7.11
2022-11-26T00:04:16.932Z,6.99
2022-11-26T00:06:46.740Z,6.99
2022-11-26T00:09:19.639Z,7.07
2022-11-26T00:11:49.085Z,7.04
2022-11-26T00:14:19.197Z,7.06
2022-11-26T00:16:49.312Z,6.95
2022-11-26T00:19:19.047Z,7.02
2022-11-26T00:21:49.665Z,7.02
2022-11-26T00:24:29.954Z,6.78
2022-11-26T00:27:01.321Z,6.81
2022-11-26T00:29:31.139Z,6.86
2022-11-26T00:32:01.017Z,6.80
2022-11-26T00:34:30.803Z,6.79
2022-11-26T00:37:00.569Z,6.66
2022-11-26T00:39:30.761Z,6.51
2022-11-26T00:42:02.239Z,6.70
2022-11-26T00:44:32.729Z,6.58
2022-11-26T00:47:02.491Z,6.71
2022-11-26T00:49:32.545Z,6.74
2022-11-26T00:52:02.526Z,6.54
2022-11-26T00:54:32.829Z,6.69
2022-11-26T00:57:02.577Z,6.41
2022-11-26T00:59:32.642Z,6.41
2022-11-26T01:02:02.572Z,6.58
2022-11-26T01:04:33.296Z,6.51
2022-11-26T01:07:03.133Z,6.42
2022-11-26T01:09:33.049Z,6.43
2022-11-26T01:12:02.770Z,6.43
2022-11-26T01:14:32.599Z,6.46
2022-11-26T01:17:02.731Z,6.28
2022-11-26T01:19:32.529Z,6.34
2022-11-26T01:22:02.349Z,6.45
2022-11-26T01:24:32.169Z,6.22
2022-11-26T01:27:01.904Z,6.25
2022-11-26T01:29:31.683Z,6.29
2022-11-26T01:32:01.574Z,6.38
2022-11-26T01:34:31.842Z,6.30
2022-11-26T01:37:01.661Z,6.30
2022-11-26T01:39:31.183Z,6.26
2022-11-26T01:42:23.242Z,6.20
2022-11-26T01:44:53.239Z,6.26
2022-11-26T01:47:28.740Z,6.31
2022-11-26T01:50:35.850Z,6.16
2022-11-26T01:53:08.972Z,6.07
2022-11-26T01:55:41.648Z,6.29
2022-11-26T01:58:14.988Z,6.31
2022-11-26T02:00:45.843Z,6.24
2022-11-26T02:03:16.310Z,6.19
2022-11-26T02:05:49.167Z,6.10
2022-11-26T02:08:19.774Z,5.95
2022-11-26T02:10:51.142Z,6.03
2022-11-26T02:13:21.760Z,6.03
2022-11-26T02:16:03.181Z,6.04
2022-11-26T02:18:36.175Z,5.87
2022-11-26T02:21:09.025Z,6.02
2022-11-26T02:24:08.484Z,5.86
2022-11-26T02:27:06.855Z,5.85
2022-11-26T02:29:51.302Z,5.72
2022-11-26T02:32:44.999Z,5.77
2022-11-26T02:35:23.685Z,5.84
2022-11-26T02:38:02.364Z,5.84
2022-11-26T02:40:31.904Z,5.78
2022-11-26T02:43:01.882Z,5.82
2022-11-26T02:45:37.604Z,5.75
2022-11-26T02:48:12.825Z,5.77
2022-11-26T02:54:08.714Z,5.78
2022-11-26T02:56:40.723Z,5.84
2022-11-26T02:59:11.872Z,5.79
2022-11-26T03:01:47.653Z,5.87
2022-11-26T03:04:20.218Z,5.87
2022-11-26T03:06:50.918Z,5.76
2022-11-26T03:09:23.687Z,5.76
2022-11-26T03:11:53.897Z,5.71
2022-11-26T03:14:23.327Z,5.91
2022-11-26T03:16:53.125Z,5.65
2022-11-26T03:19:22.966Z,5.76
2022-11-26T03:21:52.713Z,5.72
2022-11-26T03:24:22.591Z,5.72
2022-11-26T03:26:52.632Z,5.81
2022-11-26T03:29:22.685Z,5.73
2022-11-26T03:31:52.635Z,5.76
2022-11-26T03:34:22.206Z,5.80
2022-11-26T03:36:52.558Z,5.56
2022-11-26T03:39:22.621Z,5.56
2022-11-26T03:41:52.404Z,5.92
2022-11-26T03:44:22.216Z,5.86
2022-11-26T03:46:51.947Z,5.98
2022-11-26T03:49:21.831Z,5.88
2022-11-26T03:51:51.954Z,5.90
2022-11-26T03:54:21.725Z,5.88
2022-11-26T03:56:51.982Z,5.87
2022-11-26T03:59:22.025Z,5.88
2022-11-26T04:01:52.123Z,5.88
2022-11-26T04:04:21.951Z,5.82
2022-11-26T04:06:51.691Z,5.69
2022-11-26T04:09:21.782Z,5.60
2022-11-26T04:11:51.877Z,5.65
2022-11-26T04:14:21.485Z,5.84
2022-11-26T04:16:51.456Z,5.84
2022-11-26T04:19:21.274Z,5.67
2022-11-26T04:21:51.073Z,5.62
2022-11-26T04:24:20.853Z,5.60
2022-11-26T04:26:50.665Z,5.60
2022-11-26T04:29:20.155Z,5.57
2022-11-26T04:31:49.944Z,5.68
2022-11-26T04:34:19.663Z,5.65
2022-11-26T04:36:49.471Z,5.59
2022-11-26T04:39:19.233Z,5.59
2022-11-26T04:41:49.846Z,5.33
2022-11-26T04:44:19.617Z,5.48
2022-11-26T04:46:49.666Z,5.60
2022-11-26T04:49:19.164Z,5.55
2022-11-26T04:51:48.954Z,5.32
2022-11-26T04:54:18.692Z,5.58
2022-11-26T04:56:49.773Z,5.55
2022-11-26T04:59:19.505Z,5.52
2022-11-26T05:01:49.248Z,5.48
2022-11-26T05:04:20.165Z,5.34
2022-11-26T05:06:49.916Z,5.38
2022-11-26T05:09:19.657Z,5.50
2022-11-26T05:11:49.511Z,5.53
2022-11-26T05:14:19.276Z,5.44
2022-11-26T05:16:49.104Z,5.30
2022-11-26T05:19:18.974Z,5.35
2022-11-26T05:21:48.736Z,5.33
2022-11-26T05:24:18.187Z,5.37
2022-11-26T05:26:52.364Z,5.35
2022-11-26T05:29:19.754Z,5.43
2022-11-26T05:31:49.642Z,5.34
2022-11-26T05:34:19.654Z,5.18
2022-11-26T05:36:49.421Z,5.30
2022-11-26T05:39:19.182Z,5.30
2022-11-26T05:41:49.202Z,5.39
2022-11-26T05:44:18.932Z,5.33
2022-11-26T05:46:48.709Z,5.25
2022-11-26T05:49:18.813Z,5.23
2022-11-26T05:51:48.794Z,5.25
2022-11-26T05:54:18.730Z,5.23
2022-11-26T05:56:48.214Z,5.25
2022-11-26T05:59:17.965Z,5.26
2022-11-26T06:01:48.045Z,5.18
2022-11-26T06:04:17.657Z,5.04
2022-11-26T06:06:47.855Z,5.18
2022-11-26T06:09:17.637Z,5.06
2022-11-26T06:11:47.477Z,5.05
2022-11-26T06:14:17.886Z,5.12
2022-11-26T06:16:47.856Z,4.96
2022-11-26T06:19:17.776Z,5.22
2022-11-26T06:21:47.520Z,5.20
2022-11-26T06:24:17.221Z,5.28
2022-11-26T06:26:46.970Z,5.24
2022-11-26T06:29:16.704Z,4.96
2022-11-26T06:31:46.911Z,5.03
2022-11-26T06:34:17.667Z,5.00
2022-11-26T06:36:47.477Z,5.18
2022-11-26T06:39:17.282Z,5.09
2022-11-26T06:41:47.005Z,5.11
2022-11-26T06:44:16.838Z,5.11
2022-11-26T06:46:46.356Z,5.12
2022-11-26T06:49:16.191Z,4.99
2022-11-26T06:51:45.930Z,5.12
2022-11-26T06:54:15.758Z,5.23
2022-11-26T06:56:45.571Z,5.05
2022-11-26T06:59:15.635Z,5.18
2022-11-26T07:01:45.492Z,5.19
2022-11-26T07:04:15.504Z,5.10
2022-11-26T07:06:46.592Z,5.10
2022-11-26T07:09:16.629Z,5.30
2022-11-26T07:11:46.408Z,5.21
2022-11-26T07:14:16.367Z,5.18
2022-11-26T07:16:46.091Z,5.14
2022-11-26T07:19:16.321Z,5.16
2022-11-26T07:21:46.009Z,5.35
2022-11-26T07:24:15.993Z,5.26
2022-11-26T07:26:45.783Z,5.35
2022-11-26T07:29:16.102Z,5.33
2022-11-26T07:31:45.921Z,5.26
2022-11-26T07:34:15.663Z,5.26
2022-11-26T07:36:45.407Z,5.28
2022-11-26T07:39:15.177Z,5.31
2022-11-26T07:41:45.335Z,5.46
2022-11-26T07:44:15.933Z,5.44
2022-11-26T07:46:45.635Z,5.39
2022-11-26T07:49:15.074Z,5.49
2022-11-26T07:51:44.894Z,5.44
2022-11-26T07:54:14.638Z,5.49
2022-11-26T07:56:44.168Z,5.59
2022-11-26T07:59:13.918Z,5.51
2022-11-26T08:01:43.723Z,5.38
2022-11-26T08:04:13.530Z,5.60
2022-11-26T08:06:43.583Z,5.57
2022-11-26T08:09:13.033Z,5.70
2022-11-26T08:11:43.955Z,5.75
2022-11-26T08:14:14.693Z,5.76
2022-11-26T08:16:44.367Z,5.81
2022-11-26T08:19:14.911Z,5.92
2022-11-26T08:21:44.967Z,5.86
2022-11-26T08:24:17.116Z,6.06
2022-11-26T08:26:47.426Z,6.15
2022-11-26T08:29:17.504Z,6.16
2022-11-26T08:31:48.813Z,6.39
2022-11-26T08:34:19.425Z,6.34
2022-11-26T08:36:49.479Z,6.60
2022-11-26T08:39:19.891Z,6.54
2022-11-26T08:41:52.366Z,6.70
2022-11-26T08:44:21.548Z,6.76
2022-11-26T08:46:51.502Z,6.85
2022-11-26T08:49:21.545Z,6.85
2022-11-26T08:51:51.321Z,7.01
2022-11-26T08:54:21.010Z,7.01
2022-11-26T08:56:50.790Z,6.96
2022-11-26T08:59:22.272Z,7.15
2022-11-26T09:01:52.424Z,7.04
2022-11-26T09:04:22.223Z,7.30
2022-11-26T09:06:52.041Z,7.28
2022-11-26T09:09:21.835Z,7.45
2022-11-26T09:11:59.912Z,7.19
2022-11-26T09:14:31.975Z,7.14
2022-11-26T09:17:02.504Z,7.14
2022-11-26T09:19:32.385Z,7.26
2022-11-26T09:22:02.433Z,7.22
2022-11-26T09:24:32.209Z,7.36
2022-11-26T09:27:07.472Z,7.39
2022-11-26T09:29:33.179Z,7.39
2022-11-26T09:34:34.618Z,7.26
2022-11-26T09:37:04.661Z,7.53
2022-11-26T09:39:34.524Z,7.66
2022-11-26T09:42:30.531Z,7.74
2022-11-26T09:45:14.987Z,7.74
2022-11-26T09:47:47.894Z,7.78
2022-11-26T09:50:29.506Z,7.88
2022-11-26T09:53:23.530Z,7.75
2022-11-26T09:55:56.132Z,7.93
2022-11-26T09:58:31.394Z,7.82
2022-11-26T10:01:03.210Z,7.92
2022-11-26T10:03:35.185Z,7.91
2022-11-26T10:06:12.352Z,7.82
2022-11-26T10:09:11.988Z,7.82
2022-11-26T10:11:59.812Z,8.07
2022-11-26T10:14:48.912Z,8.16
2022-11-26T10:17:24.479Z,8.28
2022-11-26T10:20:03.029Z,8.45
2022-11-26T10:22:38.832Z,8.51
2022-11-26T10:25:09.114Z,8.48
2022-11-26T10:27:39.591Z,8.44
2022-11-26T10:30:20.934Z,8.62
2022-11-26T10:32:52.412Z,8.58
2022-11-26T10:35:24.796Z,8.56
2022-11-26T10:37:57.199Z,8.52
2022-11-26T10:40:29.940Z,8.59
2022-11-26T10:43:12.474Z,8.77
2022-11-26T10:45:53.926Z,8.84
2022-11-26T10:48:29.056Z,8.63
2022-11-26T10:51:23.702Z,8.69
2022-11-26T10:53:59.648Z,8.90
2022-11-26T10:56:44.721Z,9.01
2022-11-26T10:59:29.203Z,9.00
2022-11-26T11:02:07.540Z,9.13
2022-11-26T11:04:40.927Z,9.27
2022-11-26T11:07:16.482Z,9.24
2022-11-26T11:09:46.836Z,9.07
2022-11-26T11:12:24.582Z,9.19
2022-11-26T11:14:55.011Z,9.25
2022-11-26T11:17:33.947Z,9.40
2022-11-26T11:20:19.668Z,9.44
2022-11-26T11:22:54.971Z,9.56
2022-11-26T11:25:28.206Z,9.69
2022-11-26T11:28:08.963Z,9.83
2022-11-26T11:30:37.645Z,10.17
2022-11-26T11:33:13.891Z,10.41
2022-11-26T11:35:43.431Z,10.37
2022-11-26T11:38:25.017Z,10.21
2022-11-26T11:40:55.211Z,10.29
2022-11-26T11:43:26.868Z,10.28
2022-11-26T11:46:14.469Z,10.71
2022-11-26T11:48:56.192Z,10.46
2022-11-26T11:51:34.412Z,11.01
2022-11-26T11:54:23.149Z,10.86
2022-11-26T11:56:58.475Z,10.96
2022-11-26T11:59:41.387Z,11.02
2022-11-26T12:02:20.537Z,11.29
2022-11-26T12:04:56.442Z,11.47
2022-11-26T12:07:32.385Z,11.42
2022-11-26T12:10:08.071Z,11.27
2022-11-26T12:12:45.003Z,11.57
2022-11-26T12:15:40.493Z,11.78
2022-11-26T12:18:31.839Z,11.86
2022-11-26T12:21:08.917Z,12.05
2022-11-26T12:24:07.126Z,11.71
2022-11-26T12:26:46.930Z,11.69
2022-11-26T12:29:45.003Z,12.05
2022-11-26T12:32:18.765Z,12.10
2022-11-26T12:34:57.214Z,12.17
2022-11-26T12:37:30.009Z,12.02
2022-11-26T12:40:17.700Z,11.83
2022-11-26T12:42:59.378Z,11.70
2022-11-26T12:45:51.476Z,11.82
2022-11-26T12:48:27.022Z,11.43
2022-11-26T12:51:14.391Z,11.46
2022-11-26T12:54:06.683Z,11.33
2022-11-26T12:56:47.916Z,11.05
2022-11-26T12:59:26.426Z,11.30
2022-11-26T13:01:57.324Z,11.31
2022-11-26T13:04:37.715Z,11.38
2022-11-26T13:07:25.846Z,11.29
2022-11-26T13:10:18.384Z,11.31
2022-11-26T13:13:02.465Z,11.06
2022-11-26T13:15:37.655Z,10.84
2022-11-26T13:18:21.519Z,10.96
2022-11-26T13:21:16.549Z,10.72
2022-11-26T13:24:21.147Z,10.79
2022-11-26T13:26:59.993Z,10.83
2022-11-26T13:29:33.106Z,10.74
2022-11-26T13:32:13.230Z,10.82
2022-11-26T13:34:46.157Z,10.70
2022-11-26T13:37:34.021Z,10.77
2022-11-26T13:40:26.792Z,10.77
2022-11-26T13:43:05.231Z,10.93
2022-11-26T13:45:46.720Z,10.92
2022-11-26T13:48:22.059Z,10.86
2022-11-26T13:51:03.169Z,10.94
2022-11-26T13:53:38.750Z,10.90
2022-11-26T13:56:11.718Z,10.94
2022-11-26T13:58:50.383Z,10.96
2022-11-26T14:01:37.005Z,10.95
2022-11-26T14:04:13.742Z,10.92
2022-11-26T14:07:08.718Z,10.90
2022-11-26T14:09:47.429Z,10.89
2022-11-26T14:12:18.591Z,10.86
2022-11-26T14:14:50.435Z,11.19
2022-11-26T14:17:33.912Z,11.05
2022-11-26T14:20:00.743Z,10.88
2022-11-26T14:22:33.716Z,10.86
2022-11-26T14:25:09.343Z,10.79
2022-11-26T14:27:42.475Z,10.85
2022-11-26T14:30:20.350Z,10.82
2022-11-26T14:33:08.297Z,10.87
2022-11-26T14:35:40.530Z,10.84
2022-11-26T14:38:30.530Z,11.06
2022-11-26T14:41:01.835Z,10.81
2022-11-26T14:43:31.642Z,10.85
2022-11-26T14:46:15.945Z,10.94
2022-11-26T14:48:50.917Z,10.94
2022-11-26T14:51:26.250Z,10.90
2022-11-26T14:53:57.079Z,10.90
2022-11-26T14:56:27.191Z,10.93
2022-11-26T14:59:00.002Z,10.74
2022-11-26T15:01:31.837Z,10.79
2022-11-26T15:04:04.596Z,10.68
2022-11-26T15:06:38.811Z,10.59
2022-11-26T15:09:21.662Z,10.53
2022-11-26T15:11:54.525Z,10.43
2022-11-26T15:14:39.626Z,10.46
2022-11-26T15:17:18.422Z,10.51
2022-11-26T15:19:50.439Z,10.35
2022-11-26T15:22:42.109Z,10.33
2022-11-26T15:25:23.534Z,10.31
2022-11-26T15:28:05.038Z,10.25
2022-11-26T15:30:38.974Z,10.22
2022-11-26T15:33:14.800Z,10.16
2022-11-26T15:35:44.437Z,10.26
2022-11-26T15:38:17.293Z,10.30
2022-11-26T15:40:55.535Z,10.22
2022-11-26T15:43:31.313Z,10.23
2022-11-26T15:46:09.283Z,10.13
2022-11-26T15:48:52.774Z,9.93
2022-11-26T15:51:28.420Z,9.78
2022-11-26T15:53:58.089Z,9.78
2022-11-26T15:56:33.786Z,9.72
2022-11-26T15:59:07.072Z,9.62
2022-11-26T16:01:38.224Z,9.71
2022-11-26T16:04:12.425Z,9.71
2022-11-26T16:06:42.610Z,9.61
2022-11-26T16:09:18.138Z,9.61
2022-11-26T16:12:00.124Z,9.64
2022-11-26T16:14:38.582Z,9.41
2022-11-26T16:17:17.142Z,9.59
2022-11-26T16:19:55.896Z,9.47
2022-11-26T16:22:28.943Z,9.40
2022-11-26T16:25:07.816Z,9.36
2022-11-26T16:27:37.906Z,9.31
2022-11-26T16:30:17.823Z,9.40
2022-11-26T16:32:47.577Z,9.30
2022-11-26T16:35:44.125Z,9.17
2022-11-26T16:37:48.530Z,9.08
2022-11-26T16:40:19.250Z,9.13
2022-11-26T16:42:49.537Z,9.10
2022-11-26T16:45:20.643Z,9.09
2022-11-26T16:47:56.072Z,9.07
2022-11-26T16:50:27.742Z,9.10
2022-11-26T16:52:57.632Z,9.08
2022-11-26T16:55:28.029Z,9.04
2022-11-26T16:58:01.312Z,9.07
2022-11-26T17:00:30.720Z,9.02
2022-11-26T17:03:00.941Z,9.13
2022-11-26T17:05:30.782Z,8.99
2022-11-26T17:08:02.358Z,9.10
2022-11-26T17:10:32.150Z,9.06
2022-11-26T17:13:01.842Z,8.98
2022-11-26T17:15:31.324Z,9.08
2022-11-26T17:18:06.936Z,8.93
2022-11-26T17:20:36.459Z,8.88
2022-11-26T17:23:06.464Z,8.89
2022-11-26T17:25:36.245Z,8.83
2022-11-26T17:28:13.424Z,8.92
2022-11-26T17:30:45.000Z,8.89
2022-11-26T17:33:14.743Z,8.76
2022-11-26T17:35:44.538Z,8.76
2022-11-26T17:38:17.183Z,8.90
2022-11-26T17:40:47.641Z,8.75
2022-11-26T17:43:17.444Z,8.78
2022-11-26T17:45:47.542Z,8.67
2022-11-26T17:48:16.993Z,8.81
2022-11-26T17:50:46.808Z,8.84
2022-11-26T17:53:16.550Z,8.73
2022-11-26T17:55:46.352Z,8.72
2022-11-26T17:58:16.073Z,8.74
2022-11-26T18:00:45.845Z,8.68
2022-11-26T18:03:15.666Z,8.79
2022-11-26T18:05:45.741Z,8.91
2022-11-26T18:08:15.531Z,8.66
2022-11-26T18:10:45.232Z,8.59
2022-11-26T18:13:14.968Z,8.71
2022-11-26T18:15:44.981Z,8.67
2022-11-26T18:18:14.778Z,8.55
2022-11-26T18:20:44.685Z,8.67
2022-11-26T18:23:14.155Z,8.56
2022-11-26T18:25:45.597Z,8.44
2022-11-26T18:28:18.703Z,8.57
2022-11-26T18:30:48.509Z,8.57
2022-11-26T18:33:18.231Z,8.51
2022-11-26T18:35:49.465Z,8.52
2022-11-26T18:38:19.174Z,8.51
2022-11-26T18:40:50.427Z,8.43
2022-11-26T18:43:20.170Z,8.38
2022-11-26T18:45:49.928Z,8.27
2022-11-26T18:48:19.652Z,8.30
2022-11-26T18:50:58.378Z,8.38
2022-11-26T18:53:28.455Z,8.28
2022-11-26T18:55:59.015Z,8.25
2022-11-26T18:58:29.131Z,8.28
2022-11-26T19:00:59.288Z,8.27
2022-11-26T19:03:29.394Z,8.26
2022-11-26T19:05:59.210Z,8.17
2022-11-26T19:08:28.726Z,8.17
2022-11-26T19:10:58.538Z,8.24
2022-11-26T19:13:28.265Z,8.23
2022-11-26T19:15:58.616Z,8.18
2022-11-26T19:18:28.322Z,8.24
2022-11-26T19:20:58.220Z,8.31
2022-11-26T19:23:28.546Z,8.30
2022-11-26T19:25:58.473Z,8.12
2022-11-26T19:28:28.779Z,8.11
2022-11-26T19:31:01.249Z,8.13
2022-11-26T19:33:31.266Z,8.13
2022-11-26T19:36:06.106Z,8.13
2022-11-26T19:38:36.384Z,8.10
2022-11-26T19:41:07.032Z,8.02
2022-11-26T19:43:40.153Z,8.11
2022-11-26T19:46:14.953Z,8.18
2022-11-26T19:48:46.538Z,8.06
2022-11-26T19:51:17.911Z,8.09
2022-11-26T19:53:52.546Z,8.05
2022-11-26T19:56:24.975Z,8.09
2022-11-26T19:58:56.790Z,7.97
2022-11-26T20:01:29.458Z,8.08
2022-11-26T20:04:01.282Z,8.00
2022-11-26T20:06:32.641Z,8.16
2022-11-26T20:09:04.072Z,8.12
2022-11-26T20:11:36.095Z,8.19
2022-11-26T20:14:11.908Z,8.17
2022-11-26T20:16:43.546Z,8.24
2022-11-26T20:19:14.041Z,8.23
2022-11-26T20:21:43.790Z,8.13
2022-11-26T20:24:18.291Z,8.14
2022-11-26T20:26:49.676Z,8.20
2022-11-26T20:29:19.968Z,8.24
2022-11-26T20:31:51.762Z,8.48
2022-11-26T20:34:24.363Z,8.22
2022-11-26T20:36:54.180Z,8.32
2022-11-26T20:39:24.665Z,8.35
2022-11-26T20:41:54.431Z,8.36
2022-11-26T20:44:25.900Z,8.14
2022-11-26T20:46:56.950Z,8.16
2022-11-26T20:49:32.216Z,8.19
2022-11-26T20:51:58.416Z,8.27
2022-11-26T20:54:28.164Z,8.27
2022-11-26T20:56:58.108Z,8.17
2022-11-26T20:59:27.584Z,8.17
2022-11-26T21:01:57.481Z,8.05
2022-11-26T21:04:27.090Z,8.03
2022-11-26T21:06:56.856Z,7.91
2022-11-26T21:09:26.352Z,7.93
2022-11-26T21:11:56.272Z,8.12
2022-11-26T21:14:25.818Z,8.19
2022-11-26T21:16:55.592Z,8.20
2022-11-26T21:19:25.364Z,8.04
2022-11-26T21:21:55.098Z,8.04
2022-11-26T21:24:25.132Z,8.05
2022-11-26T21:26:54.600Z,7.97
2022-11-26T21:29:24.320Z,8.03
2022-11-26T21:31:54.479Z,8.11
2022-11-26T21:34:24.018Z,7.99
2022-11-26T21:36:53.779Z,8.00
2022-11-26T21:39:23.597Z,7.85
2022-11-26T21:41:53.333Z,7.89
2022-11-26T21:44:22.771Z,7.95
2022-11-26T21:46:52.528Z,7.84
2022-11-26T21:49:22.331Z,7.73
2022-11-26T21:51:51.802Z,7.78
2022-11-26T21:54:21.379Z,7.64
2022-11-26T21:56:51.172Z,7.72
2022-11-26T21:59:21.053Z,7.70
2022-11-26T22:01:51.250Z,7.66
2022-11-26T22:04:21.705Z,7.62
2022-11-26T22:06:51.707Z,7.59
2022-11-26T22:09:21.647Z,7.61
2022-11-26T22:11:51.153Z,7.57
2022-11-26T22:14:20.573Z,7.61
2022-11-26T22:16:53.978Z,7.50
2022-11-26T22:19:23.786Z,7.47
2022-11-26T22:21:53.602Z,7.62
2022-11-26T22:24:23.148Z,7.44
2022-11-26T22:26:53.941Z,7.35
2022-11-26T22:29:23.903Z,7.29
2022-11-26T22:31:53.694Z,7.28
2022-11-26T22:34:24.576Z,7.26
2022-11-26T22:36:54.392Z,7.20
2022-11-26T22:39:24.125Z,7.26
2022-11-26T22:41:53.854Z,7.25
2022-11-26T22:44:23.383Z,7.26
2022-11-26T22:46:53.102Z,7.20
2022-11-26T22:49:22.838Z,7.08
2022-11-26T22:51:52.582Z,7.06
2022-11-26T22:54:23.410Z,7.05
2022-11-26T22:56:53.085Z,7.03
2022-11-26T22:59:22.850Z,7.00
2022-11-26T23:01:55.886Z,6.89
2022-11-26T23:04:25.540Z,6.87
2022-11-26T23:06:55.269Z,6.86
2022-11-26T23:09:25.066Z,6.72
2022-11-26T23:11:54.557Z,6.79
2022-11-26T23:14:24.007Z,6.76
2022-11-26T23:16:53.766Z,6.79
2022-11-26T23:19:24.076Z,6.82
2022-11-26T23:21:53.853Z,6.59
2022-11-26T23:24:23.280Z,6.54
2022-11-26T23:26:53.022Z,6.54
2022-11-26T23:29:23.016Z,6.49
2022-11-26T23:31:52.951Z,6.62
2022-11-26T23:34:22.355Z,6.62
2022-11-26T23:36:52.079Z,6.31
2022-11-26T23:39:21.831Z,6.38
2022-11-26T23:41:51.289Z,6.37
2022-11-26T23:44:21.075Z,6.44
2022-11-26T23:46:50.853Z,6.44
2022-11-26T23:49:22.815Z,6.36
2022-11-26T23:51:52.607Z,6.31
2022-11-26T23:54:22.453Z,6.20
2022-11-26T23:56:52.523Z,6.28
2022-11-26T23:59:22.261Z,6.19
